Latest Weather Observations for Rockhampton

IDQ60801

Issued at 8:05 pm EST Saturday 22 November 2014 (issued every 30 minutes, with the page automatically refreshed every 10 minutes)

About weather observations | Map of weather stations | Latest weather observations for QLD | Other Formats
Station Details ID: 039083 Name: ROCKHAMPTON AERO Lat: -23.38 Lon: 150.48 Height: 10.4 m
Data from the previous 72 hours. | See also: Recent months at Rockhampton
Date/Time
EST
Temp
°C
App
Temp
°C
Dew
Point
Rel
Hum
%
Delta-T
°C
Wind Press
QNH
hPa
Press
MSL
hPa
Rain
since 9 am
mm
Dir
 
Spd
km/h
Gust
km/h
Spd
kts
Gust
kts
22/08:00pm 26.0 26.1 21.2 75 3.2 NNE 22 30 12 16 1014.0 - 0.0
22/07:30pm 26.5 26.8 20.7 70 3.8 NNE 20 26 11 14 1013.6 - 0.0
22/07:00pm 27.1 27.3 20.1 65 4.6 NNE 19 24 10 13 1013.0 - 0.0
22/06:30pm 27.8 27.6 19.8 61 5.2 NNE 20 32 11 17 1012.9 - 0.0
22/06:00pm 28.6 28.1 19.9 59 5.7 NNE 22 28 12 15 1012.3 1012.2 0.0
22/05:30pm 30.0 29.3 19.6 53 6.8 NNE 22 30 12 16 1011.8 - 0.0
22/05:00pm 31.2 30.4 20.0 51 7.4 NNE 24 30 13 16 1011.1 - 0.0
22/04:30pm 32.2 31.6 19.8 48 8.2 NNE 22 30 12 16 1010.9 - 0.0
22/04:00pm 34.0 33.4 19.7 43 9.5 NNE 22 28 12 15 1010.9 - 0.0
22/03:30pm 33.6 33.9 19.5 43 9.3 NE 17 26 9 14 1010.9 - 0.0
22/03:00pm 33.6 32.1 19.5 43 9.3 N 26 32 14 17 1011.1 1011.0 0.0
22/02:30pm 35.0 35.0 19.8 41 10.1 N 19 30 10 16 1011.3 - 0.0
22/02:00pm 33.6 33.5 19.5 43 9.3 ENE 19 32 10 17 1011.7 - 0.0
22/01:30pm 34.0 34.8 19.1 41 9.8 NE 13 20 7 11 1012.1 - 0.0
22/01:00pm 34.7 35.3 17.7 36 11.0 N 11 19 6 10 1012.6 - 0.0
22/12:30pm 34.0 34.3 17.1 36 10.8 NW 11 19 6 10 1013.1 - 0.0
22/12:00pm 34.1 34.5 17.2 36 10.8 N 11 20 6 11 1013.7 1013.6 0.0
22/11:30am 32.9 33.7 17.4 39 9.9 SE 9 19 5 10 1014.1 - 0.0
22/11:00am 32.7 33.0 17.0 39 10.0 NE 11 15 6 8 1014.6 - 0.0
22/10:30am 33.0 33.5 18.3 41 9.5 N 13 28 7 15 1014.9 - 0.0
22/10:00am 31.9 31.3 17.5 42 9.2 N 17 28 9 15 1015.2 - 0.0
22/09:30am 31.1 30.4 18.6 47 8.1 N 20 28 11 15 1015.6 - 0.0
22/09:00am 30.4 30.9 19.2 51 7.3 NNW 15 20 8 11 1015.8 1015.7 0.0
22/08:30am 29.8 30.5 19.7 54 6.6 N 15 26 8 14 1015.9 - 0.0
22/08:00am 29.0 30.2 20.0 58 5.9 N 13 20 7 11 1015.9 - 0.0
22/07:30am 27.5 29.1 20.7 66 4.5 NNE 13 20 7 11 1015.9 - 0.0
22/07:00am 26.2 29.0 21.5 75 3.1 NE 9 11 5 6 1015.9 - 0.0
22/06:30am 25.2 28.7 21.9 82 2.2 SE 6 9 3 5 1015.9 - 0.0
22/06:00am 23.9 27.2 21.8 88 1.4 S 7 11 4 6 1015.4 1015.3 0.0
22/05:30am 23.1 27.2 21.6 91 1.0 NNE 2 6 1 3 1014.7 - 0.0
22/05:00am 22.8 26.1 21.4 92 0.9 N 6 7 3 4 1014.1 - 0.0
22/04:30am 22.7 25.7 21.3 92 0.9 NNE 7 9 4 5 1013.6 - 0.0
22/04:00am 23.4 26.8 21.6 90 1.2 N 6 7 3 4 1013.2 - 0.0
22/03:30am 23.2 26.1 21.7 91 1.0 N 9 11 5 6 1013.2 - 0.0
22/03:00am 23.1 26.5 21.7 92 0.9 N 6 9 3 5 1012.8 1012.7 0.0
22/02:30am 23.3 26.2 21.8 91 1.0 N 9 11 5 6 1012.8 - 0.0
22/02:00am 23.6 26.1 21.8 90 1.2 N 11 13 6 7 1012.9 - 0.0
22/01:30am 23.8 26.3 21.8 88 1.3 N 11 13 6 7 1013.2 - 0.0
22/01:00am 24.1 26.7 22.0 88 1.4 NNE 11 19 6 10 1013.7 - 0.0
22/12:30am 24.2 26.8 21.9 87 1.5 NNE 11 17 6 9 1013.9 - 0.0
22/12:00am 24.3 26.6 22.0 87 1.5 NNE 13 15 7 8 1014.2 1014.1 0.0
 
Date/Time
EST
Temp
°C
App
Temp
°C
Dew
Point
Rel
Hum
%
Delta-T
°C
Wind Press
QNH
hPa
Press
MSL
hPa
Rain
since 9 am
mm
Dir
 
Spd
km/h
Gust
km/h
Spd
kts
Gust
kts
21/11:30pm 24.6 26.5 22.1 86 1.7 NNE 15 19 8 10 1014.2 - 0.0
21/11:00pm 24.7 26.2 22.0 85 1.8 NNE 17 24 9 13 1014.4 - 0.0
21/10:30pm 24.7 26.2 22.0 85 1.8 NNE 17 22 9 12 1014.4 - 0.0
21/10:00pm 25.0 25.8 21.8 82 2.1 NNE 20 26 11 14 1014.3 - 0.0
21/09:30pm 25.3 26.6 21.7 80 2.4 NNE 17 22 9 12 1014.0 - 0.0
21/09:00pm 25.7 26.9 21.5 77 2.8 N 17 20 9 11 1013.9 1013.8 0.0
21/08:30pm 25.9 27.1 21.5 76 2.9 NNE 17 26 9 14 1013.4 - 0.0
21/08:00pm 26.3 27.0 21.5 75 3.2 NNE 20 28 11 15 1013.2 - 0.0
21/07:30pm 26.6 26.8 21.3 72 3.5 NNE 22 32 12 17 1012.6 - 0.0
21/07:00pm 27.3 28.6 21.6 71 3.8 NE 17 24 9 13 1012.3 - 0.0
21/06:30pm 28.1 28.4 20.3 62 5.1 NE 19 28 10 15 1012.0 - 0.0
21/06:00pm 29.2 29.1 19.9 57 6.1 NE 20 33 11 18 1011.7 1011.6 0.0
21/05:30pm 30.0 29.8 19.8 54 6.7 NE 20 30 11 16 1011.4 - 0.0
21/05:00pm 31.0 30.4 19.8 51 7.4 NE 22 32 12 17 1011.1 - 0.0
21/04:30pm 31.5 30.4 19.5 49 7.9 NE 24 33 13 18 1010.8 - 0.0
21/04:00pm 32.6 32.0 19.7 46 8.5 NE 22 32 12 17 1010.7 - 0.0
21/03:30pm 33.6 32.8 19.3 43 9.4 NNE 22 28 12 15 1010.6 - 0.0
21/03:00pm 34.1 34.0 19.6 42 9.6 NNE 19 26 10 14 1010.8 1010.7 0.0
21/02:30pm 32.9 33.2 19.6 45 8.8 N 17 24 9 13 1011.0 - 0.0
21/02:00pm 33.9 34.7 19.0 41 9.8 NNE 13 22 7 12 1011.6 - 0.0
21/01:30pm 34.6 35.2 18.5 38 10.5 N 13 24 7 13 1011.9 - 0.0
21/01:00pm 33.9 33.6 18.2 39 10.2 NE 17 24 9 13 1012.4 - 0.0
21/12:30pm 34.5 35.0 16.6 34 11.4 SE 9 15 5 8 1013.0 - 0.0
21/12:00pm 33.8 34.5 17.0 36 10.7 N 9 17 5 9 1013.5 1013.4 0.0
21/11:30am 32.5 32.5 17.1 39 9.8 N 13 22 7 12 1014.2 - 0.0
21/11:00am 30.9 31.9 17.7 45 8.4 N 9 17 5 9 1014.8 - 0.0
21/10:30am 30.8 31.1 17.8 45 8.3 NW 13 24 7 13 1015.4 - 0.0
21/10:00am 29.6 31.5 18.9 52 6.9 ENE 7 11 4 6 1015.8 - 0.0
21/09:30am 29.1 29.6 19.2 55 6.4 WNW 15 22 8 12 1016.1 - 0.0
21/09:00am 29.1 28.8 19.2 55 6.4 N 19 24 10 13 1016.3 1016.2 0.0
21/08:30am 27.5 27.6 20.0 63 4.9 N 19 26 10 14 1016.4 - 0.0
21/08:00am 26.8 27.9 20.4 68 4.2 N 15 20 8 11 1016.5 - 0.0
21/07:30am 26.3 27.8 21.2 73 3.4 N 15 20 8 11 1016.5 - 0.0
21/07:00am 25.9 28.4 21.7 77 2.8 NNW 11 15 6 8 1016.2 - 0.0
21/06:30am 24.5 27.6 21.5 83 2.0 N 7 9 4 5 1016.2 - 0.0
21/06:00am 24.1 26.8 21.4 85 1.8 N 9 15 5 8 1015.4 1015.3 0.0
21/05:30am 23.7 26.4 21.3 86 1.6 NE 9 11 5 6 1015.0 - 0.0
21/05:00am 23.3 26.3 21.3 88 1.3 NE 7 11 4 6 1014.6 - 0.0
21/04:30am 23.3 27.8 21.5 90 1.2 CALM 0 0 0 0 1014.5 - 0.0
21/04:00am 23.2 26.5 21.4 90 1.2 ENE 6 7 3 4 1014.2 - 0.0
21/03:30am 23.2 26.5 21.5 90 1.1 ENE 6 6 3 3 1014.1 - 0.0
21/03:00am 23.2 27.7 21.5 90 1.1 CALM 0 0 0 0 1014.2 1014.1 0.0
21/02:30am 23.3 26.6 21.5 90 1.2 N 6 7 3 4 1014.0 - 0.0
21/02:00am 23.7 26.5 21.6 88 1.4 NNE 9 11 5 6 1014.1 - 0.0
21/01:30am 23.7 26.9 21.7 88 1.3 N 7 9 4 5 1014.4 - 0.0
21/01:00am 23.9 27.2 21.8 88 1.4 N 7 11 4 6 1014.8 - 0.0
21/12:30am 24.2 27.2 21.9 87 1.5 N 9 13 5 7 1014.9 - 0.0
21/12:00am 24.5 27.1 21.9 85 1.7 NE 11 17 6 9 1015.0 1014.9 0.0
 
Date/Time
EST
Temp
°C
App
Temp
°C
Dew
Point
Rel
Hum
%
Delta-T
°C
Wind Press
QNH
hPa
Press
MSL
hPa
Rain
since 9 am
mm
Dir
 
Spd
km/h
Gust
km/h
Spd
kts
Gust
kts
20/11:30pm 24.7 27.1 22.2 86 1.7 NNE 13 20 7 11 1015.3 - 0.0
20/11:00pm 24.7 26.7 22.2 86 1.7 NNE 15 19 8 10 1015.9 - 0.0
20/10:30pm 25.0 27.6 22.0 83 2.0 N 11 19 6 10 1016.2 - 0.0
20/10:00pm 25.1 27.4 22.1 83 2.0 NNE 13 19 7 10 1016.2 - 0.0
20/09:30pm 25.3 28.2 21.8 81 2.3 N 9 13 5 7 1016.2 - 0.0
20/09:00pm 25.3 27.8 21.8 81 2.3 NNE 11 17 6 9 1015.8 1015.7 0.0
20/08:30pm 25.4 27.2 21.8 80 2.4 NNE 15 20 8 11 1015.5 - 0.0
20/08:00pm 25.6 26.3 21.5 78 2.7 NNE 20 24 11 13 1015.3 - 0.0
20/07:30pm 25.9 26.6 21.2 75 3.1 NNE 19 26 10 14 1014.8 - 0.0
20/07:00pm 26.3 26.9 20.3 69 3.9 NE 17 26 9 14 1014.3 - 0.0
20/06:30pm 26.8 26.8 19.7 65 4.6 NNE 19 32 10 17 1013.7 - 0.0
20/06:00pm 27.7 26.2 18.6 57 5.8 NE 24 33 13 18 1013.1 1013.0 0.0
20/05:30pm 28.9 28.2 18.6 53 6.6 NNE 20 32 11 17 1012.8 - 0.0
20/05:00pm 29.5 27.0 18.1 50 7.3 NNE 28 39 15 21 1012.4 - 0.0
20/04:30pm 29.7 27.5 17.0 46 8.0 NE 24 37 13 20 1012.1 - 0.0
20/04:00pm 31.5 29.1 17.4 43 9.0 NE 26 39 14 21 1011.9 - 0.0
20/03:30pm 31.4 29.2 16.8 41 9.2 NE 24 37 13 20 1011.9 - 0.0
20/03:00pm 32.8 31.8 17.9 41 9.6 NE 20 30 11 16 1011.9 1011.8 0.0
20/02:30pm 32.0 30.5 17.6 42 9.2 NE 22 32 12 17 1012.2 - 0.0
20/02:00pm 33.0 31.6 18.7 42 9.3 NNE 24 33 13 18 1012.5 - 0.0
20/01:30pm 33.2 33.7 19.2 43 9.2 NNE 15 24 8 13 1012.9 - 0.0
20/01:00pm 31.8 31.7 18.7 45 8.5 NNE 17 24 9 13 1013.5 - 0.0
20/12:30pm 32.0 32.4 19.9 48 8.0 NNE 17 24 9 13 1014.0 - 0.0
20/12:00pm 31.2 32.3 18.9 48 8.0 N 11 20 6 11 1014.6 1014.5 0.0
20/11:30am 31.5 32.4 18.5 46 8.4 NNW 11 22 6 12 1015.1 - 0.0
20/11:00am 30.5 31.2 18.9 50 7.5 NNE 13 20 7 11 1015.6 - 0.0
20/10:30am 30.4 32.5 19.4 51 7.2 WNW 7 11 4 6 1016.2 - 0.0
20/10:00am 29.7 31.0 19.4 54 6.7 NE 11 17 6 9 1016.3 - 0.0
20/09:30am 28.7 29.9 20.0 59 5.7 N 13 19 7 10 1016.5 - 0.0
20/09:00am 27.4 30.0 20.4 65 4.6 N 7 15 4 8 1016.7 1016.6 5.4
20/08:30am 27.0 29.4 20.8 69 4.1 NW 9 15 5 8 1016.9 - 5.4
20/08:00am 26.8 29.9 21.5 72 3.5 NNW 7 11 4 6 1016.8 - 5.4
20/07:30am 25.2 28.3 21.1 78 2.7 E 6 7 3 4 1016.6 - 5.4
20/07:00am 24.2 27.9 22.3 89 1.3 SSW 6 9 3 5 1016.4 - 5.4
20/06:30am 23.7 26.7 22.0 90 1.1 ESE 9 17 5 9 1015.7 - 5.4
20/06:00am 23.5 26.9 22.0 91 1.0 E 7 11 4 6 1015.4 1015.3 5.4
20/05:30am 23.1 26.7 22.0 93 0.7 S 6 9 3 5 1015.2 - 5.2
20/05:00am 23.0 25.9 21.8 93 0.8 S 9 13 5 7 1014.5 - 5.2
20/04:30am 23.2 25.7 21.8 92 0.9 SSE 11 15 6 8 1014.2 - 5.2
20/04:00am 24.1 25.6 21.2 84 1.9 N 15 20 8 11 1013.6 - 5.2
20/03:30am 24.2 27.5 21.9 87 1.5 SE 7 13 4 7 1014.5 - 5.2
20/03:00am 23.9 23.9 22.4 91 1.0 N 26 39 14 21 1012.8 1012.7 5.2
20/02:49am 23.9 23.5 22.3 91 1.1 N 28 39 15 21 1012.3 - 5.2
20/02:30am 23.6 25.9 22.7 95 0.6 N 15 20 8 11 1014.2 - 5.2
20/02:00am 23.1 26.3 22.3 95 0.5 W 9 13 5 7 1015.7 - 5.2
20/01:30am 23.1 25.8 22.2 95 0.6 WNW 11 15 6 8 1015.7 - 5.0
20/01:00am 22.4 25.8 21.6 95 0.5 E 6 9 3 5 1015.1 - 5.0
20/12:30am 22.1 22.7 21.3 95 0.5 N 20 24 11 13 1015.7 - 5.0
20/12:00am 22.1 25.1 21.2 95 0.6 SSE 7 9 4 5 1017.1 1017.0 5.0
 
Date/Time
EST
Temp
°C
App
Temp
°C
Dew
Point
Rel
Hum
%
Delta-T
°C
Wind Press
QNH
hPa
Press
MSL
hPa
Rain
since 9 am
mm
Dir
 
Spd
km/h
Gust
km/h
Spd
kts
Gust
kts
19/11:30pm 22.0 25.0 21.2 95 0.5 SW 7 9 4 5 1017.4 - 5.0
19/11:00pm 21.9 23.7 21.1 95 0.5 E 13 19 7 10 1016.5 - 4.8
19/10:30pm 22.1 23.8 21.0 93 0.7 E 13 24 7 13 1018.1 - 4.6
19/10:22pm 22.0 23.3 20.9 93 0.7 ESE 15 24 8 13 1018.0 - 4.6
19/10:00pm 22.1 25.1 20.9 93 0.8 ESE 6 13 3 7 1019.7 - 3.2
19/09:53pm 22.2 24.9 20.7 91 1.0 ESE 7 11 4 6 1019.6 - 2.0
19/09:30pm 22.0 22.2 20.5 91 1.0 SE 20 41 11 22 1018.6 - 0.4
19/09:00pm 22.2 20.9 20.7 91 1.0 SE 28 43 15 23 1017.8 1017.7 0.2
19/08:56pm 22.2 20.2 20.7 91 1.0 SSE 32 50 17 27 1017.8 - 0.2
19/08:30pm 24.8 24.6 21.3 81 2.3 SSE 24 41 13 22 1017.7 - 0.0
19/08:24pm 26.2 27.4 22.5 80 2.5 SE 20 35 11 19 1017.5 - 0.0

Other Formats:

Comma delimited format used in spreadsheet applications
http://www.bom.gov.au/fwo/IDQ60801/IDQ60801.94374.axf

JavaScript Object Notation format (JSON) in row-major order
http://www.bom.gov.au/fwo/IDQ60801/IDQ60801.94374.json